createdAt,value
2022-09-29T00:00:38.073Z,100.00
2022-09-29T00:03:06.660Z,100.00
2022-09-29T00:05:36.174Z,100.00
2022-09-29T00:08:04.337Z,100.00
2022-09-29T00:10:32.344Z,100.00
2022-09-29T00:13:03.701Z,100.00
2022-09-29T00:15:31.720Z,100.00
2022-09-29T00:18:13.300Z,100.00
2022-09-29T00:20:42.107Z,100.00
2022-09-29T00:23:10.081Z,100.00
2022-09-29T00:25:40.856Z,100.00
2022-09-29T00:28:10.195Z,100.00
2022-09-29T00:30:38.223Z,100.00
2022-09-29T00:33:06.249Z,100.00
2022-09-29T00:35:34.191Z,100.00
2022-09-29T00:38:02.192Z,100.00
2022-09-29T00:40:30.175Z,100.00
2022-09-29T00:42:58.157Z,100.00
2022-09-29T00:45:27.871Z,100.00
2022-09-29T00:48:04.614Z,100.00
2022-09-29T00:50:40.673Z,100.00
2022-09-29T00:53:13.290Z,100.00
2022-09-29T00:55:45.081Z,100.00
2022-09-29T00:58:19.857Z,100.00
2022-09-29T01:00:49.860Z,100.00
2022-09-29T01:03:21.884Z,100.00
2022-09-29T01:05:52.652Z,100.00
2022-09-29T01:08:24.673Z,100.00
2022-09-29T01:10:53.585Z,100.00
2022-09-29T01:13:22.353Z,100.00
2022-09-29T01:15:52.331Z,100.00
2022-09-29T01:18:20.482Z,100.00
2022-09-29T01:20:54.159Z,100.00
2022-09-29T01:24:01.730Z,100.00
2022-09-29T01:27:03.160Z,100.00
2022-09-29T01:30:09.552Z,100.00
2022-09-29T01:33:02.526Z,100.00
2022-09-29T01:35:36.389Z,100.00
2022-09-29T01:38:13.380Z,100.00
2022-09-29T01:40:49.758Z,100.00
2022-09-29T01:43:20.094Z,100.00
2022-09-29T01:45:51.550Z,100.00
2022-09-29T01:48:26.142Z,100.00
2022-09-29T01:50:56.991Z,100.00
2022-09-29T01:53:29.536Z,100.00
2022-09-29T01:56:02.006Z,100.00
2022-09-29T01:58:34.802Z,100.00
2022-09-29T02:01:07.171Z,100.00
2022-09-29T02:03:39.156Z,100.00
2022-09-29T02:06:11.123Z,100.00
2022-09-29T02:08:41.842Z,100.00
2022-09-29T02:11:12.427Z,100.00
2022-09-29T02:13:43.131Z,100.00
2022-09-29T02:16:13.481Z,100.00
2022-09-29T02:18:46.045Z,100.00
2022-09-29T02:21:14.061Z,100.00
2022-09-29T02:23:42.070Z,100.00
2022-09-29T02:26:10.926Z,100.00
2022-09-29T02:28:39.126Z,100.00
2022-09-29T02:31:07.796Z,100.00
2022-09-29T02:33:35.808Z,100.00
2022-09-29T02:36:15.631Z,100.00
2022-09-29T02:38:46.654Z,100.00
2022-09-29T02:41:26.469Z,100.00
2022-09-29T02:44:12.032Z,100.00
2022-09-29T02:46:46.675Z,100.00
2022-09-29T02:49:27.795Z,100.00
2022-09-29T02:51:59.319Z,100.00
2022-09-29T02:54:36.477Z,100.00
2022-09-29T02:57:12.985Z,100.00
2022-09-29T02:59:47.100Z,100.00
2022-09-29T03:02:16.797Z,100.00
2022-09-29T03:04:44.749Z,100.00
2022-09-29T03:07:14.075Z,100.00
2022-09-29T03:09:42.091Z,100.00
2022-09-29T03:12:10.065Z,100.00
2022-09-29T03:14:38.047Z,100.00
2022-09-29T03:17:06.020Z,100.00
2022-09-29T03:19:34.004Z,100.00
2022-09-29T03:22:01.954Z,100.00
2022-09-29T03:24:32.996Z,100.00
2022-09-29T03:27:00.977Z,100.00
2022-09-29T03:29:29.032Z,100.00
2022-09-29T03:31:57.047Z,100.00
2022-09-29T03:34:25.018Z,100.00
2022-09-29T03:36:52.945Z,100.00
2022-09-29T03:39:21.108Z,100.00
2022-09-29T03:41:50.631Z,100.00
2022-09-29T03:44:18.569Z,100.00
2022-09-29T03:46:47.287Z,100.00
2022-09-29T03:49:16.241Z,100.00
2022-09-29T03:51:44.410Z,100.00
2022-09-29T03:54:12.606Z,100.00
2022-09-29T03:56:40.837Z,100.00
2022-09-29T03:59:12.304Z,100.00
2022-09-29T04:01:41.110Z,100.00
2022-09-29T04:04:10.644Z,100.00
2022-09-29T04:06:38.609Z,100.00
2022-09-29T04:09:06.601Z,100.00
2022-09-29T04:11:34.599Z,100.00
2022-09-29T04:14:02.613Z,100.00
2022-09-29T04:16:32.163Z,100.00
2022-09-29T04:19:00.113Z,100.00
2022-09-29T04:21:28.111Z,100.00
2022-09-29T04:23:56.124Z,100.00
2022-09-29T04:26:24.109Z,100.00
2022-09-29T04:28:54.672Z,100.00
2022-09-29T04:31:22.743Z,100.00
2022-09-29T04:33:52.224Z,100.00
2022-09-29T04:36:20.172Z,100.00
2022-09-29T04:38:48.968Z,100.00
2022-09-29T04:41:17.186Z,100.00
2022-09-29T04:43:45.288Z,100.00
2022-09-29T04:46:13.454Z,100.00
2022-09-29T04:48:41.413Z,100.00
2022-09-29T04:51:11.118Z,100.00
2022-09-29T04:53:39.184Z,100.00
2022-09-29T04:56:08.484Z,100.00
2022-09-29T04:58:36.769Z,100.00
2022-09-29T05:01:08.944Z,100.00
2022-09-29T05:03:37.075Z,100.00
2022-09-29T05:06:05.471Z,100.00
2022-09-29T05:08:35.193Z,100.00
2022-09-29T05:11:05.675Z,100.00
2022-09-29T05:13:33.762Z,100.00
2022-09-29T05:16:03.169Z,100.00
2022-09-29T05:18:31.635Z,100.00
2022-09-29T05:21:26.926Z,100.00
2022-09-29T05:23:53.443Z,100.00
2022-09-29T05:26:21.376Z,100.00
2022-09-29T05:28:49.378Z,100.00
2022-09-29T05:31:18.001Z,100.00
2022-09-29T05:33:46.136Z,100.00
2022-09-29T05:36:14.405Z,100.00
2022-09-29T05:38:42.359Z,100.00
2022-09-29T05:41:13.257Z,100.00
2022-09-29T05:43:41.730Z,100.00
2022-09-29T05:46:11.266Z,100.00
2022-09-29T05:48:39.352Z,100.00
2022-09-29T05:51:12.712Z,100.00
2022-09-29T05:53:40.743Z,100.00
2022-09-29T05:56:09.320Z,100.00
2022-09-29T05:58:39.415Z,100.00
2022-09-29T06:01:08.070Z,100.00
2022-09-29T06:03:37.109Z,100.00
2022-09-29T06:06:07.636Z,100.00
2022-09-29T06:08:36.043Z,100.00
2022-09-29T06:11:06.174Z,100.00
2022-09-29T06:13:34.444Z,100.00
2022-09-29T06:16:03.921Z,100.00
2022-09-29T06:18:32.474Z,100.00
2022-09-29T06:21:04.452Z,100.00
2022-09-29T06:23:32.540Z,100.00
2022-09-29T06:26:02.071Z,100.00
2022-09-29T06:28:30.283Z,100.00
2022-09-29T06:31:00.655Z,100.00
2022-09-29T06:33:30.595Z,100.00
2022-09-29T06:36:16.560Z,100.00
2022-09-29T06:38:45.355Z,100.00
2022-09-29T06:41:13.297Z,100.00
2022-09-29T06:43:41.218Z,100.00
2022-09-29T06:46:09.335Z,100.00
2022-09-29T06:48:38.715Z,100.00
2022-09-29T06:51:10.361Z,100.00
2022-09-29T06:53:39.312Z,100.00
2022-09-29T06:56:09.042Z,100.00
2022-09-29T06:58:37.364Z,100.00
2022-09-29T07:01:06.826Z,100.00
2022-09-29T07:03:36.204Z,100.00
2022-09-29T07:06:19.329Z,100.00
2022-09-29T07:08:47.549Z,100.00
2022-09-29T07:11:16.657Z,100.00
2022-09-29T07:13:44.629Z,100.00
2022-09-29T07:16:14.036Z,100.00
2022-09-29T07:18:43.275Z,100.00
2022-09-29T07:21:16.766Z,100.00
2022-09-29T07:23:45.263Z,100.00
2022-09-29T07:26:13.986Z,100.00
2022-09-29T07:28:41.984Z,100.00
2022-09-29T07:31:15.322Z,100.00
2022-09-29T07:33:44.113Z,100.00
2022-09-29T07:36:14.195Z,100.00
2022-09-29T07:38:42.384Z,98.35
2022-09-29T07:41:12.169Z,96.86
2022-09-29T07:43:40.875Z,96.68
2022-09-29T07:46:09.579Z,97.47
2022-09-29T07:48:38.743Z,96.96
2022-09-29T07:51:08.716Z,96.77
2022-09-29T07:53:38.513Z,97.14
2022-09-29T07:56:07.956Z,95.89
2022-09-29T07:58:37.538Z,96.35
2022-09-29T08:01:07.634Z,93.99
2022-09-29T08:03:36.414Z,94.16
2022-09-29T08:06:05.123Z,95.87
2022-09-29T08:08:33.322Z,96.74
2022-09-29T08:11:07.541Z,98.08
2022-09-29T08:13:37.758Z,97.38
2022-09-29T08:16:07.361Z,93.75
2022-09-29T08:18:36.243Z,92.98
2022-09-29T08:21:04.870Z,93.88
2022-09-29T08:23:35.907Z,91.79
2022-09-29T08:26:07.000Z,91.14
2022-09-29T08:28:37.232Z,88.21
2022-09-29T08:31:05.454Z,86.78
2022-09-29T08:33:34.190Z,88.04
2022-09-29T08:36:03.810Z,87.37
2022-09-29T08:38:33.094Z,85.33
2022-09-29T08:41:05.033Z,86.50
2022-09-29T08:43:38.415Z,85.46
2022-09-29T08:46:09.026Z,85.34
2022-09-29T08:48:51.641Z,83.65
2022-09-29T08:51:38.275Z,83.79
2022-09-29T08:54:10.831Z,79.18
2022-09-29T08:56:39.254Z,77.44
2022-09-29T08:59:09.884Z,76.11
2022-09-29T09:01:48.712Z,69.93
2022-09-29T09:04:33.541Z,59.36
2022-09-29T09:07:08.900Z,49.67
2022-09-29T09:09:51.686Z,47.65
2022-09-29T09:12:38.836Z,45.59
2022-09-29T09:15:30.207Z,44.21
2022-09-29T09:18:12.142Z,45.02
2022-09-29T09:20:54.612Z,43.47
2022-09-29T09:23:24.509Z,49.55
2022-09-29T09:25:57.103Z,51.01
2022-09-29T09:28:28.530Z,48.44
2022-09-29T09:31:00.861Z,42.72
2022-09-29T09:33:33.065Z,40.59
2022-09-29T09:36:04.824Z,44.08
2022-09-29T09:38:45.698Z,46.88
2022-09-29T09:41:17.350Z,49.86
2022-09-29T09:43:47.476Z,49.12
2022-09-29T09:46:21.728Z,44.41
2022-09-29T09:48:57.406Z,41.54
2022-09-29T09:51:33.767Z,42.19
2022-09-29T09:54:06.329Z,38.23
2022-09-29T09:56:48.191Z,34.34
2022-09-29T09:59:27.712Z,34.48
2022-09-29T10:01:57.168Z,32.47
2022-09-29T10:04:26.334Z,32.93
2022-09-29T10:06:56.281Z,35.81
2022-09-29T10:09:24.795Z,40.28
2022-09-29T10:11:53.227Z,44.48
2022-09-29T10:14:25.997Z,44.11
2022-09-29T10:16:58.249Z,43.89
2022-09-29T10:19:56.713Z,44.10
2022-09-29T10:22:24.955Z,42.49
2022-09-29T10:24:56.856Z,43.22
2022-09-29T10:27:26.897Z,45.50
2022-09-29T10:29:57.015Z,48.14
2022-09-29T10:32:36.686Z,49.85
2022-09-29T10:35:11.557Z,52.84
2022-09-29T10:37:40.904Z,54.66
2022-09-29T10:40:20.887Z,54.75
2022-09-29T10:42:51.267Z,54.20
2022-09-29T10:45:20.217Z,52.59
2022-09-29T10:47:52.666Z,52.06
2022-09-29T10:50:23.494Z,54.10
2022-09-29T10:52:54.028Z,55.26
2022-09-29T10:55:23.517Z,58.21
2022-09-29T10:57:52.268Z,57.95
2022-09-29T11:00:31.562Z,53.41
2022-09-29T11:03:15.778Z,48.50
2022-09-29T11:05:53.571Z,47.86
2022-09-29T11:08:27.816Z,49.01
2022-09-29T11:11:06.396Z,47.53
2022-09-29T11:13:38.376Z,45.16
2022-09-29T11:16:13.969Z,44.63
2022-09-29T11:18:44.878Z,48.55
2022-09-29T11:21:37.147Z,50.09
2022-09-29T11:24:08.315Z,53.94
2022-09-29T11:26:43.836Z,54.91
2022-09-29T11:29:22.259Z,56.48
2022-09-29T11:32:13.815Z,54.00
2022-09-29T11:35:11.495Z,53.42
2022-09-29T11:38:00.713Z,51.93
2022-09-29T11:40:32.380Z,54.78
2022-09-29T11:43:09.033Z,54.74
2022-09-29T11:45:42.314Z,56.86
2022-09-29T11:48:35.479Z,54.12
2022-09-29T11:51:10.317Z,55.26
2022-09-29T11:53:49.697Z,55.67
2022-09-29T11:56:29.176Z,55.35
2022-09-29T11:59:06.970Z,55.24
2022-09-29T12:01:48.077Z,57.68
2022-09-29T12:04:32.109Z,56.40
2022-09-29T12:07:07.844Z,56.81
2022-09-29T12:09:54.858Z,57.85
2022-09-29T12:12:26.439Z,59.23
2022-09-29T12:15:26.744Z,60.09
2022-09-29T12:17:57.811Z,60.07
2022-09-29T12:20:27.415Z,58.63
2022-09-29T12:23:01.061Z,58.39
2022-09-29T12:25:31.916Z,56.73
2022-09-29T12:28:02.326Z,56.49
2022-09-29T12:30:31.865Z,55.30
2022-09-29T12:33:02.706Z,57.09
2022-09-29T12:35:36.039Z,57.68
2022-09-29T12:38:15.559Z,58.70
2022-09-29T12:40:47.162Z,58.68
2022-09-29T12:43:19.114Z,56.22
2022-09-29T12:45:53.804Z,54.13
2022-09-29T12:48:35.682Z,53.23
2022-09-29T12:51:05.548Z,53.49
2022-09-29T12:53:38.505Z,54.63
2022-09-29T12:56:10.932Z,53.34
2022-09-29T12:58:43.911Z,52.44
2022-09-29T13:01:25.316Z,52.28
2022-09-29T13:04:16.885Z,52.67
2022-09-29T13:07:08.059Z,53.20
2022-09-29T13:10:15.537Z,53.82
2022-09-29T13:13:12.297Z,55.79
2022-09-29T13:15:50.109Z,57.79
2022-09-29T13:18:29.413Z,58.84
2022-09-29T13:21:06.870Z,61.31
2022-09-29T13:23:49.286Z,63.88
2022-09-29T13:26:49.804Z,64.97
2022-09-29T13:29:20.350Z,64.82
2022-09-29T13:31:49.535Z,66.59
2022-09-29T13:34:27.236Z,67.31
2022-09-29T13:36:55.443Z,65.69
2022-09-29T13:39:26.955Z,66.33
2022-09-29T13:41:56.920Z,66.10
2022-09-29T13:44:27.787Z,66.33
2022-09-29T13:46:57.224Z,66.39
2022-09-29T13:49:31.758Z,66.19
2022-09-29T13:52:01.860Z,65.23
2022-09-29T13:54:39.387Z,64.85
2022-09-29T13:57:27.688Z,63.46
2022-09-29T14:00:22.730Z,62.00
2022-09-29T14:03:03.032Z,60.90
2022-09-29T14:05:55.570Z,62.27
2022-09-29T14:08:28.576Z,64.16
2022-09-29T14:11:04.875Z,65.29
2022-09-29T14:13:42.669Z,65.40
2022-09-29T14:16:19.596Z,66.59
2022-09-29T14:18:52.161Z,66.73
2022-09-29T14:21:48.425Z,67.28
2022-09-29T14:24:49.616Z,67.67
2022-09-29T14:27:33.220Z,68.25
2022-09-29T14:30:17.894Z,69.74
2022-09-29T14:32:52.828Z,71.08
2022-09-29T14:35:26.388Z,72.81
2022-09-29T14:38:01.641Z,72.81
2022-09-29T14:40:29.971Z,72.32
2022-09-29T14:43:13.298Z,73.47
2022-09-29T14:46:32.782Z,73.79
2022-09-29T14:49:43.418Z,74.85
2022-09-29T14:52:17.313Z,76.66
2022-09-29T14:54:52.324Z,75.66
2022-09-29T14:57:34.940Z,75.65
2022-09-29T15:00:08.107Z,76.07
2022-09-29T15:02:38.286Z,77.26
2022-09-29T15:05:30.968Z,77.57
2022-09-29T15:08:01.187Z,76.92
2022-09-29T15:10:32.751Z,77.40
2022-09-29T15:13:28.346Z,77.36
2022-09-29T15:16:01.065Z,77.73
2022-09-29T15:18:57.503Z,78.28
2022-09-29T15:21:34.409Z,78.59
2022-09-29T15:24:14.582Z,79.49
2022-09-29T15:26:44.792Z,79.95
2022-09-29T15:29:17.836Z,81.75
2022-09-29T15:31:48.169Z,80.71
2022-09-29T15:34:20.528Z,80.71
2022-09-29T15:36:51.215Z,81.26
2022-09-29T15:39:45.222Z,82.02
2022-09-29T15:42:16.634Z,81.30
2022-09-29T15:44:55.389Z,81.83
2022-09-29T15:47:27.750Z,82.26
2022-09-29T15:49:57.338Z,81.97
2022-09-29T15:52:25.855Z,82.63
2022-09-29T15:54:59.007Z,82.66
2022-09-29T15:57:50.358Z,83.55
2022-09-29T16:00:45.936Z,85.04
2022-09-29T16:03:18.562Z,84.39
2022-09-29T16:05:58.859Z,83.14
2022-09-29T16:08:28.853Z,82.91
2022-09-29T16:10:58.910Z,82.91
2022-09-29T16:13:28.866Z,83.48
2022-09-29T16:15:59.098Z,83.94
2022-09-29T16:18:29.403Z,84.40
2022-09-29T16:21:00.293Z,84.17
2022-09-29T16:23:30.475Z,84.42
2022-09-29T16:26:14.380Z,83.83
2022-09-29T16:29:03.781Z,84.45
2022-09-29T16:31:33.506Z,85.29
2022-09-29T16:34:02.423Z,84.69
2022-09-29T16:36:33.884Z,86.51
2022-09-29T16:39:02.842Z,86.18
2022-09-29T16:41:35.487Z,87.01
2022-09-29T16:44:08.351Z,86.61
2022-09-29T16:46:43.776Z,87.04
2022-09-29T16:49:20.979Z,86.92
2022-09-29T16:51:51.608Z,87.33
2022-09-29T16:54:22.778Z,87.89
2022-09-29T16:56:52.860Z,88.59
2022-09-29T16:59:21.131Z,90.04
2022-09-29T17:01:49.768Z,90.94
2022-09-29T17:04:18.574Z,91.19
2022-09-29T17:06:48.600Z,92.66
2022-09-29T17:09:21.924Z,93.01
2022-09-29T17:11:50.210Z,93.17
2022-09-29T17:14:22.084Z,93.40
2022-09-29T17:16:51.636Z,92.98
2022-09-29T17:19:22.349Z,93.19
2022-09-29T17:21:50.623Z,92.78
2022-09-29T17:24:20.304Z,92.33
2022-09-29T17:27:06.342Z,91.76
2022-09-29T17:29:34.908Z,91.58
2022-09-29T17:32:03.886Z,93.50
2022-09-29T17:34:32.855Z,93.67
2022-09-29T17:37:02.104Z,93.51
2022-09-29T17:39:32.365Z,93.83
2022-09-29T17:42:00.693Z,94.04
2022-09-29T17:44:29.419Z,93.60
2022-09-29T17:47:16.951Z,93.69
2022-09-29T17:49:50.874Z,94.52
2022-09-29T17:52:19.969Z,94.06
2022-09-29T17:54:49.798Z,93.99
2022-09-29T17:57:21.802Z,93.84
2022-09-29T17:59:50.106Z,94.44
2022-09-29T18:02:18.820Z,94.63
2022-09-29T18:04:49.433Z,95.66
2022-09-29T18:07:17.558Z,94.67
2022-09-29T18:09:47.252Z,94.73
2022-09-29T18:12:16.904Z,94.44
2022-09-29T18:14:44.935Z,95.25
2022-09-29T18:17:12.999Z,94.92
2022-09-29T18:19:41.116Z,95.32
2022-09-29T18:22:09.307Z,95.85
2022-09-29T18:24:37.459Z,96.89
2022-09-29T18:27:05.765Z,98.33
2022-09-29T18:29:36.217Z,97.65
2022-09-29T18:32:05.136Z,98.41
2022-09-29T18:34:35.044Z,98.26
2022-09-29T18:37:03.208Z,98.10
2022-09-29T18:39:31.840Z,98.20
2022-09-29T18:42:00.146Z,97.71
2022-09-29T18:44:33.451Z,98.24
2022-09-29T18:47:02.963Z,99.66
2022-09-29T18:49:31.006Z,99.52
2022-09-29T18:51:59.727Z,99.14
2022-09-29T18:54:27.852Z,99.82
2022-09-29T18:56:55.965Z,99.46
2022-09-29T18:59:24.094Z,99.77
2022-09-29T19:01:52.369Z,99.86
2022-09-29T19:04:21.926Z,99.78
2022-09-29T19:06:50.051Z,99.49
2022-09-29T19:09:18.332Z,99.06
2022-09-29T19:11:50.308Z,98.75
2022-09-29T19:14:18.972Z,99.40
2022-09-29T19:16:48.231Z,99.52
2022-09-29T19:19:16.569Z,100.00
2022-09-29T19:21:46.047Z,100.00
2022-09-29T19:24:14.136Z,100.00
2022-09-29T19:26:42.258Z,100.00
2022-09-29T19:29:10.353Z,100.00
2022-09-29T19:31:38.593Z,100.00
2022-09-29T19:34:06.798Z,99.40
2022-09-29T19:36:36.265Z,100.00
2022-09-29T19:39:08.012Z,99.87
2022-09-29T19:41:36.158Z,99.43
2022-09-29T19:44:04.307Z,99.50
2022-09-29T19:46:32.546Z,99.62
2022-09-29T19:49:00.704Z,98.63
2022-09-29T19:51:47.609Z,98.82
2022-09-29T19:54:19.302Z,98.76
2022-09-29T19:56:49.634Z,99.25
2022-09-29T19:59:19.911Z,99.47
2022-09-29T20:01:50.245Z,99.51
2022-09-29T20:04:19.380Z,99.63
2022-09-29T20:06:47.867Z,100.00
2022-09-29T20:09:18.074Z,100.00
2022-09-29T20:11:47.210Z,100.00
2022-09-29T20:14:20.760Z,100.00
2022-09-29T20:16:49.052Z,100.00
2022-09-29T20:19:19.856Z,100.00
2022-09-29T20:21:49.604Z,100.00
2022-09-29T20:24:20.846Z,100.00
2022-09-29T20:26:49.739Z,100.00
2022-09-29T20:29:20.033Z,100.00
2022-09-29T20:31:48.483Z,100.00
2022-09-29T20:34:18.556Z,100.00
2022-09-29T20:36:50.886Z,100.00
2022-09-29T20:39:25.401Z,100.00
2022-09-29T20:41:55.056Z,100.00
2022-09-29T20:44:25.834Z,100.00
2022-09-29T20:46:54.690Z,100.00
2022-09-29T20:49:22.939Z,100.00
2022-09-29T20:51:51.738Z,100.00
2022-09-29T20:54:20.411Z,100.00
2022-09-29T20:56:50.509Z,100.00
2022-09-29T20:59:23.423Z,100.00
2022-09-29T21:01:53.461Z,100.00
2022-09-29T21:04:22.630Z,100.00
2022-09-29T21:06:52.210Z,100.00
2022-09-29T21:09:22.353Z,100.00
2022-09-29T21:11:53.677Z,100.00
2022-09-29T21:14:24.313Z,100.00
2022-09-29T21:16:53.368Z,100.00
2022-09-29T21:19:24.066Z,100.00
2022-09-29T21:21:55.478Z,100.00
2022-09-29T21:24:23.764Z,100.00
2022-09-29T21:26:53.360Z,100.00
2022-09-29T21:29:21.466Z,100.00
2022-09-29T21:31:50.672Z,100.00
2022-09-29T21:34:19.294Z,100.00
2022-09-29T21:36:47.422Z,100.00
2022-09-29T21:39:16.987Z,100.00
2022-09-29T21:41:46.064Z,100.00
2022-09-29T21:44:16.947Z,100.00
2022-09-29T21:46:46.108Z,100.00
2022-09-29T21:49:16.435Z,100.00
2022-09-29T21:51:46.345Z,100.00
2022-09-29T21:54:15.955Z,100.00
2022-09-29T21:56:45.549Z,100.00
2022-09-29T21:59:17.296Z,100.00
2022-09-29T22:01:46.212Z,100.00
2022-09-29T22:04:15.419Z,100.00
2022-09-29T22:06:44.977Z,100.00
2022-09-29T22:09:17.066Z,100.00
2022-09-29T22:11:45.393Z,100.00
2022-09-29T22:14:16.127Z,100.00
2022-09-29T22:16:44.368Z,100.00
2022-09-29T22:19:28.472Z,100.00
2022-09-29T22:21:56.794Z,100.00
2022-09-29T22:24:26.725Z,100.00
2022-09-29T22:26:55.267Z,100.00
2022-09-29T22:29:24.938Z,100.00
2022-09-29T22:31:53.188Z,100.00
2022-09-29T22:34:21.291Z,100.00
2022-09-29T22:36:49.476Z,100.00
2022-09-29T22:39:17.757Z,100.00
2022-09-29T22:41:45.799Z,100.00
2022-09-29T22:44:14.147Z,100.00
2022-09-29T22:46:43.797Z,100.00
2022-09-29T22:49:12.147Z,100.00
2022-09-29T22:51:40.312Z,100.00
2022-09-29T22:54:08.435Z,100.00
2022-09-29T22:56:36.457Z,100.00
2022-09-29T22:59:05.581Z,100.00
2022-09-29T23:01:34.921Z,100.00
2022-09-29T23:04:05.089Z,100.00
2022-09-29T23:06:33.477Z,100.00
2022-09-29T23:09:01.719Z,100.00
2022-09-29T23:11:31.320Z,100.00
2022-09-29T23:14:00.330Z,100.00
2022-09-29T23:16:28.558Z,100.00
2022-09-29T23:18:58.766Z,100.00
2022-09-29T23:21:28.380Z,100.00
2022-09-29T23:23:58.244Z,100.00
2022-09-29T23:26:26.833Z,100.00
2022-09-29T23:28:55.803Z,100.00
2022-09-29T23:31:26.679Z,100.00
2022-09-29T23:33:56.003Z,100.00
2022-09-29T23:36:24.610Z,100.00
2022-09-29T23:39:11.415Z,100.00
2022-09-29T23:41:41.416Z,100.00
2022-09-29T23:44:09.793Z,100.00
2022-09-29T23:46:39.975Z,100.00
2022-09-29T23:49:10.176Z,100.00
2022-09-29T23:51:39.279Z,100.00
2022-09-29T23:54:09.863Z,100.00
2022-09-29T23:56:38.218Z,100.00
2022-09-29T23:59:07.286Z,100.00
